createdAt,value
2022-10-15T00:00:20.090Z,97498.38
2022-10-15T00:03:25.095Z,97493.75
2022-10-15T00:06:35.276Z,97487.75
2022-10-15T00:09:41.125Z,97490.44
2022-10-15T00:12:46.101Z,97493.28
2022-10-15T00:15:51.164Z,97481.38
2022-10-15T00:18:59.244Z,97484.09
2022-10-15T00:22:05.850Z,97479.78
2022-10-15T00:25:11.690Z,97483.59
2022-10-15T00:28:16.757Z,97481.22
2022-10-15T00:31:24.728Z,97484.25
2022-10-15T00:34:29.978Z,97481.69
2022-10-15T00:37:36.806Z,97483.91
2022-10-15T00:40:45.971Z,97485.19
2022-10-15T00:43:52.380Z,97472.16
2022-10-15T00:46:59.938Z,97478.66
2022-10-15T00:50:09.570Z,97476.75
2022-10-15T00:53:16.454Z,97478.66
2022-10-15T00:56:25.793Z,97471.97
2022-10-15T00:59:33.263Z,97469.75
2022-10-15T01:02:38.125Z,97462.59
2022-10-15T01:05:44.266Z,97455.44
2022-10-15T01:09:01.662Z,97453.34
2022-10-15T01:12:13.892Z,97451.34
2022-10-15T01:15:25.336Z,97446.84
2022-10-15T01:18:38.043Z,97449.88
2022-10-15T01:21:50.259Z,97444.47
2022-10-15T01:25:12.129Z,97443.38
2022-10-15T01:28:28.012Z,97446.41
2022-10-15T01:31:42.550Z,97446.53
2022-10-15T01:34:55.542Z,97443.84
2022-10-15T01:38:09.369Z,97440.47
2022-10-15T01:41:22.489Z,97432.38
2022-10-15T01:44:33.708Z,97436.81
2022-10-15T01:47:47.331Z,97427.13
2022-10-15T01:50:57.214Z,97431.75
2022-10-15T01:54:02.767Z,97424.41
2022-10-15T01:57:10.391Z,97425.06
2022-10-15T02:00:17.091Z,97420.94
2022-10-15T02:03:23.780Z,97425.69
2022-10-15T02:06:34.137Z,97420.94
2022-10-15T02:09:50.370Z,97432.03
2022-10-15T02:13:06.658Z,97430.47
2022-10-15T02:16:21.227Z,97428.25
2022-10-15T02:19:37.970Z,97430.16
2022-10-15T02:22:50.527Z,97430.16
2022-10-15T02:25:57.104Z,97430.16
2022-10-15T02:29:05.329Z,97432.53
2022-10-15T02:32:12.356Z,97442.69
2022-10-15T02:35:19.115Z,97445.41
2022-10-15T02:38:29.741Z,97444.28
2022-10-15T02:41:37.259Z,97447.31
2022-10-15T02:44:42.811Z,97451.13
2022-10-15T02:47:48.100Z,97441.25
2022-10-15T02:50:55.001Z,97438.53
2022-10-15T02:54:00.134Z,97448.25
2022-10-15T02:57:06.952Z,97445.06
2022-10-15T03:00:12.673Z,97452.38
2022-10-15T03:03:17.669Z,97447.31
2022-10-15T03:06:24.761Z,97450.66
2022-10-15T03:09:29.648Z,97452.91
2022-10-15T03:12:36.665Z,97459.72
2022-10-15T03:15:41.718Z,97453.19
2022-10-15T03:18:46.518Z,97455.91
2022-10-15T03:21:52.750Z,97457.03
2022-10-15T03:24:59.106Z,97454.78
2022-10-15T03:28:03.869Z,97451.94
2022-10-15T03:31:08.969Z,97454.66
2022-10-15T03:34:14.015Z,97455.59
2022-10-15T03:37:20.840Z,97465.28
2022-10-15T03:40:27.871Z,97461.94
2022-10-15T03:43:37.463Z,97468.13
2022-10-15T03:46:45.510Z,97467.34
2022-10-15T03:49:50.723Z,97477.97
2022-10-15T03:52:57.215Z,97476.06
2022-10-15T03:56:06.232Z,97485.28
2022-10-15T03:59:11.259Z,97490.34
2022-10-15T04:02:18.256Z,97485.63
2022-10-15T04:05:23.250Z,97480.88
2022-10-15T04:08:29.787Z,97482.78
2022-10-15T04:11:34.586Z,97487.38
2022-10-15T04:14:41.414Z,97491.19
2022-10-15T04:17:46.663Z,97486.28
2022-10-15T04:20:54.668Z,97494.69
2022-10-15T04:24:02.939Z,97495.16
2022-10-15T04:27:08.071Z,97501.84
2022-10-15T04:30:14.332Z,97506.09
2022-10-15T04:33:19.347Z,97506.91
2022-10-15T04:36:24.492Z,97506.09
2022-10-15T04:39:30.241Z,97506.44
2022-10-15T04:42:37.101Z,97510.28
2022-10-15T04:45:42.159Z,97509.78
2022-10-15T04:48:48.375Z,97505.50
2022-10-15T04:51:53.215Z,97508.53
2022-10-15T04:55:00.096Z,97520.47
2022-10-15T04:58:04.741Z,97523.78
2022-10-15T05:01:12.454Z,97526.00
2022-10-15T05:04:19.929Z,97518.22
2022-10-15T05:07:25.328Z,97513.16
2022-10-15T05:10:32.616Z,97519.66
2022-10-15T05:13:37.850Z,97527.25
2022-10-15T05:16:42.887Z,97531.09
2022-10-15T05:19:47.910Z,97541.41
2022-10-15T05:22:53.096Z,97541.41
2022-10-15T05:26:02.063Z,97554.13
2022-10-15T05:29:06.937Z,97554.94
2022-10-15T05:32:11.760Z,97553.03
2022-10-15T05:35:16.222Z,97547.63
2022-10-15T05:38:21.316Z,97556.50
2022-10-15T05:41:28.546Z,97568.13
2022-10-15T05:44:33.543Z,97571.63
2022-10-15T05:47:38.953Z,97568.44
2022-10-15T05:50:43.631Z,97565.25
2022-10-15T05:53:48.638Z,97566.69
2022-10-15T05:56:54.864Z,97563.50
2022-10-15T06:00:00.250Z,97583.53
2022-10-15T06:03:05.226Z,97585.78
2022-10-15T06:06:17.903Z,97590.22
2022-10-15T06:09:22.466Z,97592.91
2022-10-15T06:12:28.967Z,97603.72
2022-10-15T06:15:34.374Z,97607.53
2022-10-15T06:18:40.318Z,97602.13
2022-10-15T06:21:45.349Z,97608.31
2022-10-15T06:24:52.413Z,97621.50
2022-10-15T06:28:02.650Z,97618.81
2022-10-15T06:31:08.937Z,97621.97
2022-10-15T06:34:18.717Z,97625.50
2022-10-15T06:37:24.440Z,97631.38
2022-10-15T06:40:30.951Z,97644.06
2022-10-15T06:43:38.163Z,97656.97
2022-10-15T06:46:43.271Z,97650.44
2022-10-15T06:49:52.947Z,97648.69
2022-10-15T06:56:05.519Z,97662.09
2022-10-15T06:59:19.901Z,97652.53
2022-10-15T07:02:26.137Z,97672.41
2022-10-15T07:05:31.616Z,97671.00
2022-10-15T07:08:39.545Z,97686.56
2022-10-15T07:11:44.145Z,97688.97
2022-10-15T07:14:50.377Z,97690.88
2022-10-15T07:18:03.699Z,97699.47
2022-10-15T07:24:18.609Z,97698.50
2022-10-15T07:27:23.751Z,97692.47
2022-10-15T07:30:30.498Z,97697.69
2022-10-15T07:33:36.263Z,97702.97
2022-10-15T07:36:41.192Z,97703.59
2022-10-15T07:39:46.109Z,97709.31
2022-10-15T07:42:55.883Z,97713.47
2022-10-15T07:46:02.675Z,97708.66
2022-10-15T07:49:07.799Z,97708.06
2022-10-15T07:52:13.180Z,97723.16
2022-10-15T07:55:18.250Z,97722.53
2022-10-15T07:58:25.784Z,97734.59
2022-10-15T08:01:32.146Z,97737.78
2022-10-15T08:04:37.306Z,97743.53
2022-10-15T08:07:42.511Z,97739.53
2022-10-15T08:10:48.107Z,97741.00
2022-10-15T08:13:55.090Z,97740.50
2022-10-15T08:17:01.726Z,97740.31
2022-10-15T08:20:07.209Z,97741.94
2022-10-15T08:23:17.270Z,97737.63
2022-10-15T08:26:24.152Z,97738.56
2022-10-15T08:29:29.187Z,97738.09
2022-10-15T08:32:35.940Z,97730.16
2022-10-15T08:35:44.947Z,97730.47
2022-10-15T08:38:49.954Z,97740.34
2022-10-15T08:41:57.371Z,97738.88
2022-10-15T08:45:06.535Z,97745.91
2022-10-15T08:48:16.688Z,97749.56
2022-10-15T08:51:24.871Z,97751.78
2022-10-15T08:54:30.227Z,97751.94
2022-10-15T08:57:42.897Z,97753.84
2022-10-15T09:00:52.749Z,97752.28
2022-10-15T09:04:09.905Z,97747.97
2022-10-15T09:07:23.019Z,97750.66
2022-10-15T09:10:37.880Z,97752.28
2022-10-15T09:13:45.317Z,97753.50
2022-10-15T09:16:52.667Z,97754.78
2022-10-15T09:20:00.610Z,97754.78
2022-10-15T09:23:09.135Z,97759.09
2022-10-15T09:26:26.712Z,97759.59
2022-10-15T09:29:38.776Z,97771.34
2022-10-15T09:32:50.628Z,97765.78
2022-10-15T09:36:08.117Z,97772.13
2022-10-15T09:39:28.349Z,97771.38
2022-10-15T09:42:37.175Z,97775.63
2022-10-15T09:45:42.305Z,97775.31
2022-10-15T09:48:53.574Z,97773.34
2022-10-15T09:52:08.954Z,97769.97
2022-10-15T09:55:29.943Z,97773.28
2022-10-15T09:58:43.597Z,97771.78
2022-10-15T10:02:00.827Z,97779.56
2022-10-15T10:05:22.451Z,97779.34
2022-10-15T10:08:31.263Z,97787.63
2022-10-15T10:11:51.186Z,97787.00
2022-10-15T10:14:58.846Z,97779.31
2022-10-15T10:18:05.823Z,97784.28
2022-10-15T10:21:25.335Z,97787.63
2022-10-15T10:24:34.976Z,97792.72
2022-10-15T10:27:47.588Z,97796.19
2022-10-15T10:31:04.094Z,97787.00
2022-10-15T10:34:09.066Z,97800.72
2022-10-15T10:37:15.018Z,97803.00
2022-10-15T10:40:30.185Z,97790.84
2022-10-15T10:43:39.171Z,97802.13
2022-10-15T10:46:44.174Z,97805.09
2022-10-15T10:49:53.054Z,97805.44
2022-10-15T10:53:02.076Z,97799.69
2022-10-15T10:56:11.169Z,97813.84
2022-10-15T10:59:20.664Z,97799.16
2022-10-15T11:02:26.263Z,97798.41
2022-10-15T11:05:35.582Z,97801.59
2022-10-15T11:08:47.422Z,97797.06
2022-10-15T11:12:06.837Z,97795.22
2022-10-15T11:15:23.879Z,97802.28
2022-10-15T11:18:51.087Z,97788.22
2022-10-15T11:22:13.049Z,97777.00
2022-10-15T11:25:27.568Z,97791.31
2022-10-15T11:28:48.889Z,97777.84
2022-10-15T11:32:14.559Z,97784.19
2022-10-15T11:35:52.405Z,97785.88
2022-10-15T11:39:24.840Z,97768.34
2022-10-15T11:42:37.658Z,97773.22
2022-10-15T11:45:59.819Z,97774.34
2022-10-15T11:49:21.038Z,97767.09
2022-10-15T11:52:56.825Z,97765.31
2022-10-15T11:56:06.806Z,97763.84
2022-10-15T11:59:22.395Z,97751.41
2022-10-15T12:02:34.884Z,97756.94
2022-10-15T12:05:47.467Z,97763.09
2022-10-15T12:08:54.558Z,97759.00
2022-10-15T12:12:06.825Z,97752.53
2022-10-15T12:15:26.718Z,97759.00
2022-10-15T12:18:42.166Z,97756.59
2022-10-15T12:22:07.418Z,97757.84
2022-10-15T12:25:44.892Z,97749.47
2022-10-15T12:28:52.975Z,97755.22
2022-10-15T12:31:58.223Z,97758.03
2022-10-15T12:35:05.962Z,97756.44
2022-10-15T12:38:30.970Z,97755.06
2022-10-15T12:41:43.980Z,97741.69
2022-10-15T12:44:52.005Z,97751.38
2022-10-15T12:48:14.846Z,97749.53
2022-10-15T12:51:41.265Z,97749.94
2022-10-15T12:54:47.246Z,97750.34
2022-10-15T12:57:58.956Z,97735.41
2022-10-15T13:01:09.180Z,97738.16
2022-10-15T13:04:14.587Z,97737.25
2022-10-15T13:07:19.691Z,97734.88
2022-10-15T13:10:29.898Z,97730.13
2022-10-15T13:13:37.416Z,97735.53
2022-10-15T13:16:46.972Z,97739.72
2022-10-15T13:19:58.631Z,97750.50
2022-10-15T13:23:36.859Z,97749.94
2022-10-15T13:26:41.781Z,97758.31
2022-10-15T13:30:01.561Z,97748.53
2022-10-15T13:33:07.138Z,97751.28
2022-10-15T13:36:18.346Z,97749.78
2022-10-15T13:39:30.227Z,97752.69
2022-10-15T13:42:35.277Z,97738.03
2022-10-15T13:45:47.752Z,97740.03
2022-10-15T13:48:58.265Z,97746.00
2022-10-15T13:52:03.985Z,97750.09
2022-10-15T13:55:18.767Z,97749.50
2022-10-15T13:58:27.684Z,97745.19
2022-10-15T14:01:36.894Z,97748.69
2022-10-15T14:04:42.012Z,97757.47
2022-10-15T14:07:57.189Z,97755.44
2022-10-15T14:11:05.241Z,97755.28
2022-10-15T14:14:30.755Z,97756.72
2022-10-15T14:17:37.646Z,97756.72
2022-10-15T14:20:46.874Z,97758.00
2022-10-15T14:23:52.687Z,97760.88
2022-10-15T14:27:02.973Z,97761.75
2022-10-15T14:30:16.759Z,97746.78
2022-10-15T14:33:35.438Z,97743.28
2022-10-15T14:36:45.007Z,97739.28
2022-10-15T14:39:51.149Z,97743.47
2022-10-15T14:43:07.872Z,97742.13
2022-10-15T14:46:19.885Z,97743.06
2022-10-15T14:49:32.567Z,97737.16
2022-10-15T14:52:40.321Z,97739.41
2022-10-15T14:55:49.614Z,97740.19
2022-10-15T14:58:59.361Z,97742.25
2022-10-15T15:02:06.094Z,97736.66
2022-10-15T15:05:23.140Z,97740.59
2022-10-15T15:08:28.810Z,97736.13
2022-10-15T15:11:34.075Z,97729.38
2022-10-15T15:14:39.067Z,97735.13
2022-10-15T15:17:45.517Z,97736.22
2022-10-15T15:20:55.579Z,97733.28
2022-10-15T15:24:00.827Z,97737.59
2022-10-15T15:27:06.027Z,97738.97
2022-10-15T15:30:17.850Z,97738.31
2022-10-15T15:33:23.055Z,97735.28
2022-10-15T15:36:29.559Z,97734.59
2022-10-15T15:39:34.638Z,97736.09
2022-10-15T15:42:41.585Z,97732.34
2022-10-15T15:45:47.554Z,97725.78
2022-10-15T15:48:52.598Z,97736.28
2022-10-15T15:51:59.089Z,97737.97
2022-10-15T15:55:03.792Z,97738.78
2022-10-15T15:58:10.383Z,97739.75
2022-10-15T16:01:15.747Z,97750.97
2022-10-15T16:04:21.190Z,97756.19
2022-10-15T16:07:28.680Z,97760.69
2022-10-15T16:10:33.629Z,97760.09
2022-10-15T16:13:38.585Z,97764.41
2022-10-15T16:16:43.412Z,97774.78
2022-10-15T16:19:48.742Z,97774.97
2022-10-15T16:22:55.799Z,97773.13
2022-10-15T16:26:00.817Z,97784.13
2022-10-15T16:29:06.556Z,97782.91
2022-10-15T16:32:13.947Z,97786.91
2022-10-15T16:35:19.071Z,97774.50
2022-10-15T16:38:25.545Z,97786.78
2022-10-15T16:41:30.480Z,97792.72
2022-10-15T16:44:36.384Z,97789.88
2022-10-15T16:47:41.943Z,97802.47
2022-10-15T16:50:48.038Z,97798.53
2022-10-15T16:53:55.747Z,97806.34
2022-10-15T16:57:02.703Z,97810.94
2022-10-15T17:00:08.182Z,97800.28
2022-10-15T17:03:13.962Z,97812.44
2022-10-15T17:06:22.075Z,97817.03
2022-10-15T17:09:28.535Z,97827.88
2022-10-15T17:12:33.726Z,97835.06
2022-10-15T17:15:38.580Z,97840.81
2022-10-15T17:18:44.656Z,97838.41
2022-10-15T17:21:51.382Z,97850.22
2022-10-15T17:24:58.365Z,97858.22
2022-10-15T17:28:03.548Z,97859.97
2022-10-15T17:31:09.846Z,97862.84
2022-10-15T17:34:15.336Z,97860.31
2022-10-15T17:37:20.405Z,97862.06
2022-10-15T17:40:26.901Z,97864.50
2022-10-15T17:43:34.959Z,97865.13
2022-10-15T17:46:42.954Z,97869.91
2022-10-15T17:49:47.663Z,97874.69
2022-10-15T17:52:52.716Z,97870.41
2022-10-15T17:56:00.067Z,97878.03
2022-10-15T17:59:07.534Z,97888.41
2022-10-15T18:02:12.595Z,97886.00
2022-10-15T18:05:17.459Z,97895.72
2022-10-15T18:08:23.366Z,97885.22
2022-10-15T18:11:31.798Z,97887.59
2022-10-15T18:14:37.393Z,97886.50
2022-10-15T18:17:42.448Z,97883.94
2022-10-15T18:20:49.038Z,97888.22
2022-10-15T18:23:56.821Z,97883.63
2022-10-15T18:27:03.364Z,97882.81
2022-10-15T18:30:09.427Z,97897.97
2022-10-15T18:33:14.273Z,97893.63
2022-10-15T18:36:23.496Z,97897.47
2022-10-15T18:39:29.921Z,97889.03
2022-10-15T18:42:36.834Z,97882.34
2022-10-15T18:45:45.099Z,97888.22
2022-10-15T18:48:50.299Z,97891.41
2022-10-15T18:51:55.762Z,97890.94
2022-10-15T18:55:00.526Z,97886.47
2022-10-15T18:58:08.685Z,97887.44
2022-10-15T19:01:15.917Z,97896.69
2022-10-15T19:04:23.741Z,97898.91
2022-10-15T19:07:31.634Z,97899.53
2022-10-15T19:39:21.437Z,97923.56
2022-10-15T19:42:26.295Z,97915.78
2022-10-15T19:45:31.162Z,97917.53
2022-10-15T19:48:38.471Z,97912.44
2022-10-15T19:51:43.897Z,97911.47
2022-10-15T19:54:48.767Z,97913.88
2022-10-15T19:57:55.032Z,97916.06
2022-10-15T20:01:01.003Z,97923.22
2022-10-15T20:04:07.956Z,97919.72
2022-10-15T20:07:12.617Z,97925.94
2022-10-15T20:10:25.709Z,97929.25
2022-10-15T20:13:31.393Z,97938.03
2022-10-15T20:16:36.399Z,97949.00
2022-10-15T20:19:42.729Z,97957.94
2022-10-15T20:22:47.731Z,97950.63
2022-10-15T20:25:51.290Z,97958.41
2022-10-15T20:28:54.030Z,97961.13
2022-10-15T20:32:05.686Z,97973.25
2022-10-15T20:35:16.053Z,97964.50
2022-10-15T20:38:18.753Z,97970.72
2022-10-15T20:41:21.366Z,97981.03
2022-10-15T20:44:24.369Z,97976.25
2022-10-15T20:47:27.222Z,97981.38
2022-10-15T20:50:35.384Z,97971.31
2022-10-15T20:53:38.866Z,97978.19
2022-10-15T20:56:42.494Z,97984.69
2022-10-15T20:59:45.078Z,97986.91
2022-10-15T21:02:47.771Z,97981.00
2022-10-15T21:05:51.930Z,97986.75
2022-10-15T21:08:54.637Z,97999.00
2022-10-15T21:11:57.262Z,97996.13
2022-10-15T21:14:59.917Z,98002.19
2022-10-15T21:18:02.607Z,98002.47
2022-10-15T21:21:08.726Z,98000.88
2022-10-15T21:24:11.320Z,97996.56
2022-10-15T21:27:13.972Z,97997.38
2022-10-15T21:30:16.841Z,97993.88
2022-10-15T21:33:19.870Z,98000.72
2022-10-15T21:36:26.297Z,97992.94
2022-10-15T21:39:29.093Z,98002.13
2022-10-15T21:42:38.118Z,98002.78
2022-10-15T21:45:42.980Z,98017.41
2022-10-15T21:48:47.713Z,98005.28
2022-10-15T21:51:57.334Z,98009.13
2022-10-15T21:55:02.556Z,98009.13
2022-10-15T21:58:08.078Z,98008.31
2022-10-15T22:01:15.879Z,98001.31
2022-10-15T22:04:21.958Z,97998.63
2022-10-15T22:07:28.536Z,98006.25
2022-10-15T22:10:33.238Z,98003.53
2022-10-15T22:13:38.354Z,98011.66
2022-10-15T22:16:43.635Z,97998.44
2022-10-15T22:19:48.789Z,98000.03
2022-10-15T22:22:55.644Z,98002.56
2022-10-15T22:26:01.085Z,98005.59
2022-10-15T22:29:09.657Z,98017.19
2022-10-15T22:32:14.681Z,98004.78
2022-10-15T22:35:19.573Z,98002.41
2022-10-15T22:38:26.096Z,98020.22
2022-10-15T22:41:32.401Z,98018.63
2022-10-15T22:44:37.541Z,98035.47
2022-10-15T22:47:42.445Z,98036.28
2022-10-15T22:50:47.491Z,98037.06
2022-10-15T22:53:56.660Z,98032.28
2022-10-15T22:57:01.638Z,98043.41
2022-10-15T23:00:07.429Z,98040.53
2022-10-15T23:03:12.763Z,98034.63
2022-10-15T23:06:19.442Z,98035.72
2022-10-15T23:09:25.701Z,98036.53
2022-10-15T23:12:30.703Z,98027.94
2022-10-15T23:15:35.766Z,98033.34
2022-10-15T23:18:40.752Z,98033.66
2022-10-15T23:21:47.327Z,98040.97
2022-10-15T23:24:53.805Z,98028.56
2022-10-15T23:27:58.645Z,98040.97
2022-10-15T23:31:03.637Z,98042.88
2022-10-15T23:34:08.729Z,98045.13
2022-10-15T23:37:14.393Z,98040.31
2022-10-15T23:40:21.926Z,98041.44
2022-10-15T23:43:26.811Z,98041.22
2022-10-15T23:46:33.544Z,98045.38
2022-10-15T23:49:38.724Z,98058.09
2022-10-15T23:52:46.042Z,98072.41
2022-10-15T23:55:54.658Z,98068.91
2022-10-15T23:59:01.760Z,98068.59
